createdAt,value
2018-12-27T00:01:25.469Z,89.91
2018-12-27T00:03:53.852Z,90.04
2018-12-27T00:06:22.229Z,89.80
2018-12-27T00:08:50.624Z,89.82
2018-12-27T00:11:18.988Z,89.48
2018-12-27T00:13:47.371Z,89.99
2018-12-27T00:16:15.745Z,90.08
2018-12-27T00:18:44.137Z,89.91
2018-12-27T00:21:12.518Z,89.83
2018-12-27T00:23:40.906Z,89.58
2018-12-27T00:26:09.282Z,90.10
2018-12-27T00:28:37.669Z,89.85
2018-12-27T00:31:25.428Z,89.42
2018-12-27T00:33:53.935Z,89.74
2018-12-27T00:36:22.449Z,90.39
2018-12-27T00:38:51.602Z,89.57
2018-12-27T00:41:21.195Z,90.04
2018-12-27T00:43:49.714Z,90.47
2018-12-27T00:46:37.475Z,90.39
2018-12-27T00:49:05.991Z,90.08
2018-12-27T00:51:34.490Z,89.85
2018-12-27T00:54:02.998Z,89.57
2018-12-27T00:56:31.551Z,90.01
2018-12-27T00:59:00.077Z,90.36
2018-12-27T01:01:28.589Z,88.91
2018-12-27T01:03:57.088Z,88.10
2018-12-27T01:06:25.613Z,87.71
2018-12-27T01:08:54.117Z,87.73
2018-12-27T01:11:42.010Z,87.50
2018-12-27T01:14:10.513Z,87.67
2018-12-27T01:16:39.028Z,88.03
2018-12-27T01:19:07.523Z,88.93
2018-12-27T01:21:36.026Z,88.96
2018-12-27T01:24:04.541Z,88.79
2018-12-27T01:26:33.045Z,88.44
2018-12-27T01:29:20.811Z,87.88
2018-12-27T01:31:50.670Z,88.38
2018-12-27T01:34:19.807Z,88.05
2018-12-27T01:36:48.319Z,87.47
2018-12-27T01:39:16.820Z,87.77
2018-12-27T01:41:45.321Z,87.35
2018-12-27T01:44:33.100Z,87.64
2018-12-27T01:47:01.602Z,88.23
2018-12-27T01:49:30.128Z,88.37
2018-12-27T01:51:58.626Z,88.56
2018-12-27T01:54:27.124Z,88.65
2018-12-27T01:56:55.635Z,88.92
2018-12-27T01:59:24.147Z,88.52
2018-12-27T02:01:52.663Z,88.63
2018-12-27T02:04:21.165Z,88.92
2018-12-27T02:06:49.672Z,88.79
2018-12-27T02:09:18.183Z,88.69
2018-12-27T02:12:06.024Z,88.38
2018-12-27T02:14:34.522Z,89.06
2018-12-27T02:17:03.115Z,89.10
2018-12-27T02:19:31.634Z,89.03
2018-12-27T02:22:00.166Z,88.99
2018-12-27T02:24:47.924Z,88.67
2018-12-27T02:27:16.439Z,88.60
2018-12-27T02:29:44.943Z,88.82
2018-12-27T02:32:13.982Z,88.96
2018-12-27T02:35:02.133Z,89.42
2018-12-27T02:37:30.989Z,90.44
2018-12-27T02:39:59.989Z,90.40
2018-12-27T02:42:28.700Z,90.05
2018-12-27T02:44:57.534Z,90.44
2018-12-27T02:47:26.105Z,91.24
2018-12-27T02:49:55.022Z,91.42
2018-12-27T02:52:24.060Z,91.41
2018-12-27T02:55:13.808Z,91.20
2018-12-27T02:57:42.409Z,91.24
2018-12-27T03:17:25.230Z,89.37
2018-12-27T03:19:53.798Z,88.40
2018-12-27T03:22:22.315Z,88.20
2018-12-27T03:24:50.831Z,88.22
2018-12-27T03:27:19.346Z,88.25
2018-12-27T03:29:47.852Z,87.90
2018-12-27T03:32:16.603Z,88.31
2018-12-27T03:34:45.100Z,88.59
2018-12-27T03:37:13.614Z,88.34
2018-12-27T03:39:42.126Z,87.93
2018-12-27T03:42:10.649Z,88.35
2018-12-27T03:44:39.146Z,88.25
2018-12-27T03:47:07.653Z,88.83
2018-12-27T03:49:36.158Z,89.33
2018-12-27T03:52:04.674Z,89.66
2018-12-27T03:54:33.255Z,89.79
2018-12-27T03:57:01.746Z,89.85
2018-12-27T03:59:30.260Z,89.43
2018-12-27T04:01:58.763Z,88.75
2018-12-27T04:04:27.279Z,88.51
2018-12-27T04:06:55.782Z,89.17
2018-12-27T04:09:24.300Z,89.08
2018-12-27T04:11:52.799Z,89.33
2018-12-27T04:14:21.304Z,89.94
2018-12-27T04:16:49.687Z,89.18
2018-12-27T04:19:18.067Z,89.21
2018-12-27T04:21:46.448Z,89.81
2018-12-27T04:24:35.612Z,90.09
2018-12-27T04:27:03.995Z,89.46
2018-12-27T04:29:32.376Z,90.07
2018-12-27T04:32:00.920Z,89.91
2018-12-27T04:35:09.220Z,90.37
2018-12-27T04:37:37.599Z,90.51
2018-12-27T04:40:45.903Z,90.29
2018-12-27T04:43:34.280Z,90.33
2018-12-27T04:46:02.674Z,90.07
2018-12-27T04:48:31.053Z,89.89
2018-12-27T04:50:59.434Z,89.62
2018-12-27T04:53:27.811Z,89.96
2018-12-27T04:55:56.193Z,90.61
2018-12-27T04:58:24.569Z,90.05
2018-12-27T05:00:53.184Z,90.46
2018-12-27T05:03:21.582Z,90.99
2018-12-27T05:05:49.949Z,90.92
2018-12-27T05:08:18.346Z,91.31
2018-12-27T05:10:46.718Z,91.65
2018-12-27T05:13:15.106Z,91.32
2018-12-27T05:15:43.493Z,91.17
2018-12-27T05:18:11.885Z,91.37
2018-12-27T05:20:59.607Z,91.49
2018-12-27T05:23:27.991Z,91.21
2018-12-27T05:25:56.365Z,90.73
2018-12-27T05:28:24.749Z,90.46
2018-12-27T05:30:53.125Z,90.61
2018-12-27T05:33:21.503Z,90.45
2018-12-27T05:36:09.217Z,89.73
2018-12-27T05:38:37.632Z,90.20
2018-12-27T05:41:06.004Z,89.61
2018-12-27T05:43:34.388Z,90.31
2018-12-27T05:46:22.189Z,89.90
2018-12-27T05:48:50.567Z,89.79
2018-12-27T05:51:18.954Z,90.11
2018-12-27T05:53:47.323Z,90.17
2018-12-27T05:56:16.150Z,89.72
2018-12-27T05:58:44.552Z,89.92
2018-12-27T06:01:13.118Z,89.55
2018-12-27T06:03:41.820Z,90.29
2018-12-27T06:06:10.229Z,90.23
2018-12-27T06:08:38.626Z,90.30
2018-12-27T06:11:07.084Z,91.08
2018-12-27T06:13:54.789Z,90.32
2018-12-27T06:16:23.199Z,90.77
2018-12-27T06:18:51.603Z,89.79
2018-12-27T06:21:20.389Z,90.36
2018-12-27T06:23:48.784Z,89.91
2018-12-27T06:26:36.533Z,89.87
2018-12-27T06:29:05.017Z,89.29
2018-12-27T06:31:35.233Z,89.15
2018-12-27T06:34:03.839Z,89.25
2018-12-27T06:36:32.224Z,89.69
2018-12-27T06:39:19.939Z,89.91
2018-12-27T06:41:48.317Z,90.40
2018-12-27T06:44:16.702Z,90.77
2018-12-27T06:47:04.455Z,91.67
2018-12-27T06:49:32.885Z,91.81
2018-12-27T06:52:01.267Z,91.74
2018-12-27T06:54:49.352Z,92.21
2018-12-27T06:57:17.830Z,92.05
2018-12-27T07:00:05.911Z,92.30
2018-12-27T07:02:34.288Z,92.24
2018-12-27T07:05:22.021Z,92.70
2018-12-27T07:07:50.412Z,92.91
2018-12-27T07:10:18.815Z,92.67
2018-12-27T07:12:47.234Z,92.37
2018-12-27T07:15:15.660Z,92.01
2018-12-27T07:17:44.029Z,92.27
2018-12-27T07:20:12.422Z,92.21
2018-12-27T07:22:40.796Z,92.54
2018-12-27T07:25:09.181Z,92.30
2018-12-27T07:27:37.885Z,92.40
2018-12-27T07:30:46.541Z,92.53
2018-12-27T07:33:14.939Z,92.19
2018-12-27T07:35:43.343Z,92.22
2018-12-27T07:38:11.731Z,92.51
2018-12-27T07:40:40.108Z,92.49
2018-12-27T07:43:08.921Z,91.81
2018-12-27T07:45:37.302Z,91.39
2018-12-27T07:48:05.663Z,91.65
2018-12-27T07:50:34.055Z,92.18
2018-12-27T07:53:46.481Z,92.21
2018-12-27T07:56:14.850Z,92.40
2018-12-27T07:59:02.371Z,91.77
2018-12-27T08:01:30.745Z,91.98
2018-12-27T08:04:18.595Z,91.57
2018-12-27T08:06:46.982Z,91.82
2018-12-27T08:09:15.411Z,91.47
2018-12-27T08:11:43.768Z,90.85
2018-12-27T08:14:12.158Z,91.08
2018-12-27T08:16:40.523Z,90.85
2018-12-27T08:19:09.163Z,90.81
2018-12-27T08:21:37.546Z,91.81
2018-12-27T08:24:05.918Z,91.03
2018-12-27T08:26:34.316Z,91.65
2018-12-27T08:29:02.694Z,92.06
2018-12-27T08:31:31.080Z,91.72
2018-12-27T08:33:59.449Z,91.29
2018-12-27T08:36:28.065Z,91.25
2018-12-27T08:38:56.437Z,91.05
2018-12-27T08:41:24.823Z,90.90
2018-12-27T08:43:53.197Z,90.96
2018-12-27T08:46:21.576Z,91.03
2018-12-27T08:48:49.947Z,90.80
2018-12-27T08:51:18.332Z,90.03
2018-12-27T08:53:46.707Z,90.01
2018-12-27T08:56:15.093Z,89.84
2018-12-27T08:58:43.465Z,89.67
2018-12-27T09:01:11.844Z,89.37
2018-12-27T09:03:40.222Z,89.33
2018-12-27T09:06:08.866Z,89.17
2018-12-27T09:08:37.228Z,88.73
2018-12-27T09:11:05.616Z,88.14
2018-12-27T09:13:46.363Z,88.09
2018-12-27T09:16:04.193Z,88.30
2018-12-27T09:18:32.571Z,88.12
2018-12-27T09:21:20.304Z,87.91
2018-12-27T09:23:48.686Z,88.13
2018-12-27T09:26:17.080Z,88.11
2018-12-27T09:28:45.464Z,88.13
2018-12-27T09:31:13.844Z,87.91
2018-12-27T09:34:04.897Z,97.58
2018-12-27T09:36:12.364Z,100.00
2018-12-27T09:38:40.754Z,100.00
2018-12-27T09:41:09.137Z,93.91
2018-12-27T09:43:37.527Z,82.02
2018-12-27T09:46:06.146Z,83.22
2018-12-27T09:48:34.538Z,83.57
2018-12-27T09:51:22.261Z,84.69
2018-12-27T09:53:50.636Z,84.63
2018-12-27T09:56:25.924Z,84.82
2018-12-27T09:58:54.314Z,84.36
2018-12-27T10:01:22.748Z,84.31
2018-12-27T10:03:51.075Z,84.18
2018-12-27T10:06:19.446Z,84.30
2018-12-27T10:08:47.913Z,84.29
2018-12-27T10:11:16.284Z,83.62
2018-12-27T10:13:44.956Z,83.00
2018-12-27T10:16:13.359Z,82.81
2018-12-27T10:18:41.730Z,82.13
2018-12-27T10:21:10.110Z,82.10
2018-12-27T10:23:38.488Z,82.00
2018-12-27T10:26:06.873Z,81.69
2018-12-27T10:28:35.253Z,82.18
2018-12-27T10:31:03.633Z,81.41
2018-12-27T10:33:32.019Z,81.15
2018-12-27T10:36:00.402Z,80.50
2018-12-27T10:38:28.785Z,80.20
2018-12-27T10:40:57.166Z,80.50
2018-12-27T10:43:44.901Z,80.88
2018-12-27T10:46:13.291Z,81.34
2018-12-27T10:48:41.680Z,80.44
2018-12-27T10:51:10.087Z,79.95
2018-12-27T10:53:38.460Z,79.44
2018-12-27T10:56:06.918Z,79.49
2018-12-27T10:58:35.294Z,78.47
2018-12-27T11:01:03.684Z,79.12
2018-12-27T11:03:32.080Z,78.01
2018-12-27T11:06:00.700Z,77.61
2018-12-27T11:08:29.088Z,77.63
2018-12-27T11:10:57.469Z,77.47
2018-12-27T11:13:25.853Z,76.79
2018-12-27T11:15:54.231Z,76.96
2018-12-27T11:18:22.621Z,77.44
2018-12-27T11:20:50.993Z,76.50
2018-12-27T11:23:19.378Z,76.81
2018-12-27T11:25:48.579Z,76.27
2018-12-27T11:28:17.849Z,75.86
2018-12-27T11:30:46.239Z,75.06
2018-12-27T11:33:34.002Z,75.52
2018-12-27T11:36:02.377Z,75.94
2018-12-27T11:38:30.768Z,75.76
2018-12-27T11:40:59.141Z,75.24
2018-12-27T11:43:27.546Z,74.61
2018-12-27T11:45:55.919Z,74.14
2018-12-27T11:48:24.312Z,73.69
2018-12-27T11:51:12.022Z,73.85
2018-12-27T11:53:40.427Z,73.39
2018-12-27T11:56:08.794Z,72.42
2018-12-27T11:58:56.519Z,73.12
2018-12-27T12:01:44.226Z,72.58
2018-12-27T12:04:32.054Z,72.87
2018-12-27T12:07:00.435Z,72.92
2018-12-27T12:09:48.395Z,72.50
2018-12-27T12:12:16.779Z,72.89
2018-12-27T12:14:45.191Z,71.76
2018-12-27T12:17:32.904Z,72.28
2018-12-27T12:20:01.293Z,72.26
2018-12-27T12:22:29.671Z,73.71
2018-12-27T12:24:58.077Z,72.62
2018-12-27T12:27:26.479Z,72.65
2018-12-27T12:29:54.866Z,73.11
2018-12-27T12:32:23.247Z,74.20
2018-12-27T12:34:51.626Z,74.75
2018-12-27T12:37:20.452Z,73.99
2018-12-27T12:39:48.902Z,73.87
2018-12-27T12:42:17.493Z,73.84
2018-12-27T12:44:45.839Z,72.80
2018-12-27T12:47:14.228Z,74.22
2018-12-27T12:49:42.595Z,73.02
2018-12-27T12:52:10.981Z,73.01
2018-12-27T12:54:39.378Z,72.94
2018-12-27T12:57:07.757Z,72.64
2018-12-27T12:59:36.145Z,71.38
2018-12-27T13:02:04.636Z,72.05
2018-12-27T13:04:33.024Z,72.80
2018-12-27T13:07:01.459Z,71.91
2018-12-27T13:09:29.861Z,73.00
2018-12-27T13:12:17.597Z,72.50
2018-12-27T13:14:45.993Z,72.48
2018-12-27T13:17:33.789Z,72.34
2018-12-27T13:20:02.238Z,72.90
2018-12-27T13:22:30.700Z,72.48
2018-12-27T13:25:18.471Z,71.92
2018-12-27T13:27:46.856Z,71.78
2018-12-27T13:30:15.475Z,72.10
2018-12-27T13:32:43.856Z,73.33
2018-12-27T13:35:31.563Z,72.73
2018-12-27T13:37:59.945Z,73.62
2018-12-27T13:40:28.314Z,73.80
2018-12-27T13:42:56.713Z,72.88
2018-12-27T13:45:44.433Z,74.15
2018-12-27T13:48:12.831Z,72.64
2018-12-27T13:50:41.195Z,72.40
2018-12-27T13:53:09.614Z,72.10
2018-12-27T13:55:38.294Z,72.50
2018-12-27T13:58:06.663Z,72.97
2018-12-27T14:00:54.546Z,72.65
2018-12-27T14:03:22.935Z,72.78
2018-12-27T14:05:51.306Z,72.63
2018-12-27T14:08:19.678Z,72.35
2018-12-27T14:10:48.062Z,72.57
2018-12-27T14:13:16.438Z,73.42
2018-12-27T14:15:44.823Z,73.36
2018-12-27T14:18:13.815Z,73.45
2018-12-27T14:20:42.210Z,74.31
2018-12-27T14:23:10.590Z,73.35
2018-12-27T14:25:38.971Z,72.61
2018-12-27T14:28:07.346Z,73.11
2018-12-27T14:30:35.739Z,72.58
2018-12-27T14:33:05.045Z,72.95
2018-12-27T14:35:33.440Z,73.57
2018-12-27T14:38:02.047Z,72.34
2018-12-27T14:40:30.428Z,72.76
2018-12-27T14:42:58.823Z,72.69
2018-12-27T14:45:28.151Z,72.78
2018-12-27T14:47:56.525Z,72.18
2018-12-27T14:50:24.922Z,73.64
2018-12-27T14:52:53.351Z,73.14
2018-12-27T14:55:21.731Z,73.05
2018-12-27T14:57:50.134Z,72.23
2018-12-27T15:00:18.612Z,72.62
2018-12-27T15:02:47.952Z,72.46
2018-12-27T15:05:18.278Z,72.72
2018-12-27T15:07:46.855Z,72.00
2018-12-27T15:10:15.229Z,72.00
2018-12-27T15:12:43.629Z,73.01
2018-12-27T15:15:12.004Z,72.30
2018-12-27T15:17:40.400Z,72.68
2018-12-27T15:20:08.887Z,73.41
2018-12-27T15:22:39.254Z,73.64
2018-12-27T15:25:07.634Z,73.32
2018-12-27T15:27:36.953Z,73.38
2018-12-27T15:30:06.462Z,74.20
2018-12-27T15:32:35.870Z,73.15
2018-12-27T15:35:04.583Z,72.29
2018-12-27T15:37:33.210Z,72.72
2018-12-27T15:40:01.582Z,72.03
2018-12-27T15:42:29.946Z,71.46
2018-12-27T15:44:58.328Z,72.66
2018-12-27T15:47:26.698Z,71.97
2018-12-27T15:49:55.092Z,73.65
2018-12-27T15:52:23.462Z,72.01
2018-12-27T15:54:51.956Z,72.54
2018-12-27T15:57:20.321Z,73.75
2018-12-27T15:59:48.704Z,72.27
2018-12-27T16:02:17.164Z,72.04
2018-12-27T16:04:45.543Z,71.67
2018-12-27T16:07:17.026Z,72.84
2018-12-27T16:09:48.401Z,72.53
2018-12-27T16:12:17.246Z,72.89
2018-12-27T16:14:45.880Z,73.56
2018-12-27T16:17:14.283Z,73.54
2018-12-27T16:19:42.698Z,75.13
2018-12-27T16:22:11.068Z,75.50
2018-12-27T16:24:39.526Z,76.43
2018-12-27T16:27:15.858Z,76.39
2018-12-27T16:29:44.247Z,76.98
2018-12-27T16:32:12.635Z,77.28
2018-12-27T16:34:41.041Z,76.54
2018-12-27T16:37:09.466Z,76.26
2018-12-27T16:39:38.492Z,76.92
2018-12-27T16:42:12.883Z,78.21
2018-12-27T16:44:42.177Z,77.39
2018-12-27T16:47:10.583Z,77.88
2018-12-27T16:49:38.989Z,78.24
2018-12-27T16:52:13.156Z,78.38
2018-12-27T16:54:41.568Z,79.00
2018-12-27T16:57:09.973Z,78.89
2018-12-27T16:59:38.350Z,79.06
2018-12-27T17:02:07.699Z,78.68
2018-12-27T17:04:36.097Z,79.27
2018-12-27T17:07:16.003Z,79.72
2018-12-27T17:09:40.403Z,79.87
2018-12-27T17:12:08.825Z,79.26
2018-12-27T17:14:37.233Z,80.94
2018-12-27T17:17:06.575Z,79.35
2018-12-27T17:19:34.959Z,78.96
2018-12-27T17:22:04.376Z,79.49
2018-12-27T17:24:32.764Z,78.68
2018-12-27T17:27:03.070Z,79.21
2018-12-27T17:29:37.471Z,80.16
2018-12-27T17:32:05.844Z,79.74
2018-12-27T17:34:34.258Z,80.60
2018-12-27T17:37:04.830Z,81.24
2018-12-27T17:39:33.256Z,81.21
2018-12-27T17:42:01.878Z,82.21
2018-12-27T17:44:32.385Z,82.66
2018-12-27T17:47:00.773Z,81.12
2018-12-27T17:49:29.159Z,81.95
2018-12-27T17:51:57.532Z,81.47
2018-12-27T17:54:25.906Z,81.54
2018-12-27T17:56:54.409Z,81.81
2018-12-27T17:59:22.786Z,80.88
2018-12-27T18:01:51.219Z,81.66
2018-12-27T18:04:19.633Z,81.24
2018-12-27T18:06:53.907Z,81.08
2018-12-27T18:09:22.287Z,80.54
2018-12-27T18:11:50.674Z,80.25
2018-12-27T18:14:19.077Z,80.67
2018-12-27T18:16:47.474Z,81.23
2018-12-27T18:19:15.862Z,80.18
2018-12-27T18:21:45.211Z,80.62
2018-12-27T18:24:18.255Z,81.40
2018-12-27T18:26:48.723Z,80.80
2018-12-27T18:29:17.093Z,81.02
2018-12-27T18:31:45.476Z,81.72
2018-12-27T18:34:14.769Z,81.40
2018-12-27T18:36:45.114Z,82.35
2018-12-27T18:39:13.588Z,81.66
2018-12-27T18:41:41.940Z,82.77
2018-12-27T18:44:10.318Z,82.87
2018-12-27T18:46:38.728Z,81.65
2018-12-27T18:49:07.118Z,82.02
2018-12-27T18:51:35.566Z,81.90
2018-12-27T18:54:03.973Z,82.67
2018-12-27T18:56:33.359Z,82.31
2018-12-27T18:59:01.765Z,83.13
2018-12-27T19:01:30.447Z,83.30
2018-12-27T19:03:58.900Z,82.90
2018-12-27T19:06:27.283Z,83.55
2018-12-27T19:08:55.675Z,83.32
2018-12-27T19:12:00.598Z,82.84
2018-12-27T19:14:30.937Z,83.29
2018-12-27T19:17:00.387Z,83.14
2018-12-27T19:19:28.773Z,83.26
2018-12-27T19:21:57.247Z,84.09
2018-12-27T19:24:25.615Z,82.86
2018-12-27T19:26:53.999Z,82.63
2018-12-27T19:29:28.241Z,82.58
2018-12-27T19:31:56.623Z,83.43
2018-12-27T19:34:30.762Z,83.63
2018-12-27T19:37:04.854Z,83.19
2018-12-27T19:39:33.249Z,82.80
2018-12-27T19:42:01.714Z,83.66
2018-12-27T19:44:30.127Z,83.51
2018-12-27T19:46:58.495Z,84.36
2018-12-27T19:49:26.968Z,84.70
2018-12-27T19:51:55.580Z,85.07
2018-12-27T19:54:24.043Z,84.91
2018-12-27T19:56:54.381Z,84.65
2018-12-27T19:59:26.342Z,84.09
2018-12-27T20:01:54.715Z,83.44
2018-12-27T20:04:23.107Z,83.16
2018-12-27T20:06:51.732Z,83.40
2018-12-27T20:09:20.136Z,84.15
2018-12-27T20:11:48.510Z,84.67
2018-12-27T20:14:16.902Z,84.47
2018-12-27T20:16:46.194Z,85.46
2018-12-27T20:19:14.583Z,84.85
2018-12-27T20:21:42.966Z,85.09
2018-12-27T20:24:11.368Z,85.92
2018-12-27T20:26:39.740Z,85.41
2018-12-27T20:29:13.856Z,85.46
2018-12-27T20:31:43.605Z,85.64
2018-12-27T20:34:13.011Z,85.73
2018-12-27T20:36:42.362Z,85.55
2018-12-27T20:39:10.736Z,85.09
2018-12-27T20:41:39.194Z,84.61
2018-12-27T20:44:07.587Z,84.63
2018-12-27T20:46:35.969Z,84.69
2018-12-27T20:49:04.358Z,84.28
2018-12-27T20:54:36.160Z,83.78
2018-12-27T20:57:08.492Z,83.98
2018-12-27T20:59:36.876Z,83.71
2018-12-27T21:02:05.328Z,84.01
2018-12-27T21:04:33.719Z,84.43
2018-12-27T21:07:03.032Z,84.35
2018-12-27T21:09:31.495Z,84.59
2018-12-27T21:12:03.044Z,84.21
2018-12-27T21:14:31.397Z,83.55
2018-12-27T21:16:59.790Z,84.28
2018-12-27T21:19:28.173Z,84.05
2018-12-27T21:21:56.555Z,84.91
2018-12-27T21:24:24.989Z,83.34
2018-12-27T21:26:53.361Z,82.35
2018-12-27T21:29:21.750Z,82.12
2018-12-27T21:31:50.171Z,82.83
2018-12-27T21:34:18.565Z,84.71
2018-12-27T21:36:50.599Z,84.59
2018-12-27T21:39:19.002Z,84.61
2018-12-27T21:41:47.541Z,84.35
2018-12-27T21:44:15.937Z,84.53
2018-12-27T21:46:44.318Z,84.82
2018-12-27T21:49:32.079Z,84.17
2018-12-27T21:52:00.743Z,84.73
2018-12-27T21:54:29.125Z,85.05
2018-12-27T21:56:57.491Z,84.68
2018-12-27T21:59:45.219Z,85.62
2018-12-27T22:02:13.604Z,85.60
2018-12-27T22:04:41.981Z,85.93
2018-12-27T22:07:10.357Z,85.66
2018-12-27T22:09:39.054Z,85.67
2018-12-27T22:12:07.438Z,85.36
2018-12-27T22:14:35.818Z,85.56
2018-12-27T22:17:04.198Z,86.05
2018-12-27T22:19:32.612Z,85.46
2018-12-27T22:22:00.990Z,85.56
2018-12-27T22:24:29.361Z,85.63
2018-12-27T22:26:57.755Z,85.79
2018-12-27T22:29:45.470Z,86.17
2018-12-27T22:32:13.850Z,86.20
2018-12-27T22:34:42.233Z,86.17
2018-12-27T22:37:10.632Z,85.07
2018-12-27T22:39:39.007Z,86.23
2018-12-27T22:42:07.397Z,86.51
2018-12-27T22:44:35.772Z,86.15
2018-12-27T22:47:04.148Z,86.69
2018-12-27T22:49:32.565Z,86.44
2018-12-27T22:52:00.948Z,86.06
2018-12-27T22:54:29.325Z,86.74
2018-12-27T22:56:57.718Z,85.60
2018-12-27T22:59:45.427Z,84.67
2018-12-27T23:02:13.888Z,84.88
2018-12-27T23:05:01.594Z,85.05
2018-12-27T23:07:29.986Z,91.80
2018-12-27T23:09:58.382Z,88.64
2018-12-27T23:12:26.884Z,77.61
2018-12-27T23:14:55.970Z,74.95
2018-12-27T23:17:24.353Z,74.02
2018-12-27T23:20:12.246Z,76.52
2018-12-27T23:22:40.748Z,77.92
2018-12-27T23:25:09.112Z,80.53
2018-12-27T23:27:37.560Z,81.46
2018-12-27T23:30:46.083Z,82.67
2018-12-27T23:33:14.447Z,83.73
2018-12-27T23:35:42.819Z,83.26
2018-12-27T23:38:11.201Z,83.08
2018-12-27T23:40:39.586Z,84.12
2018-12-27T23:43:07.970Z,83.56
2018-12-27T23:45:36.353Z,82.69
2018-12-27T23:48:04.740Z,83.10
2018-12-27T23:50:33.116Z,83.22
2018-12-27T23:53:01.499Z,82.68
2018-12-27T23:55:29.879Z,83.34
2018-12-27T23:57:58.263Z,83.91
